sensor_id;sensor_type;location;lat;lon;timestamp;pressure;altitude;pressure_sealevel;temperature;humidity
28000;BME280;15328;50.860;10.562;2023-02-10T00:01:39;98086.81;;;-0.08;48.11
28000;BME280;15328;50.860;10.562;2023-02-10T00:06:40;98088.72;;;-0.10;48.51
28000;BME280;15328;50.860;10.562;2023-02-10T00:11:41;98091.19;;;-0.20;49.51
28000;BME280;15328;50.860;10.562;2023-02-10T00:16:57;98084.38;;;-0.22;49.19
28000;BME280;15328;50.860;10.562;2023-02-10T00:21:58;98090.22;;;-0.19;49.06
28000;BME280;15328;50.860;10.562;2023-02-10T00:26:59;98079.06;;;-0.21;49.49
28000;BME280;15328;50.860;10.562;2023-02-10T00:31:59;98088.56;;;-0.20;49.41
28000;BME280;15328;50.860;10.562;2023-02-10T00:37:00;98081.44;;;-0.18;49.51
28000;BME280;15328;50.860;10.562;2023-02-10T00:42:00;98089.41;;;-0.19;49.70
28000;BME280;15328;50.860;10.562;2023-02-10T00:47:00;98091.28;;;-0.21;50.01
28000;BME280;15328;50.860;10.562;2023-02-10T00:52:01;98099.25;;;-0.23;50.75
28000;BME280;15328;50.860;10.562;2023-02-10T00:57:01;98097.84;;;-0.16;50.78
28000;BME280;15328;50.860;10.562;2023-02-10T01:02:02;98096.69;;;-0.12;51.14
28000;BME280;15328;50.860;10.562;2023-02-10T01:07:02;98096.97;;;-0.04;51.46
28000;BME280;15328;50.860;10.562;2023-02-10T01:12:02;98092.84;;;0.05;51.47
28000;BME280;15328;50.860;10.562;2023-02-10T01:17:03;98108.47;;;0.18;51.63
28000;BME280;15328;50.860;10.562;2023-02-10T01:22:03;98113.97;;;0.26;51.22
28000;BME280;15328;50.860;10.562;2023-02-10T01:27:04;98109.97;;;0.33;51.58
28000;BME280;15328;50.860;10.562;2023-02-10T01:32:04;98110.34;;;0.40;51.63
28000;BME280;15328;50.860;10.562;2023-02-10T01:37:04;98114.78;;;0.50;51.67
28000;BME280;15328;50.860;10.562;2023-02-10T01:42:05;98115.91;;;0.59;50.70
28000;BME280;15328;50.860;10.562;2023-02-10T01:47:08;98119.50;;;0.69;51.39
28000;BME280;15328;50.860;10.562;2023-02-10T01:52:18;98128.31;;;0.79;51.42
28000;BME280;15328;50.860;10.562;2023-02-10T01:57:20;98123.47;;;0.86;50.79
28000;BME280;15328;50.860;10.562;2023-02-10T02:02:21;98124.06;;;0.89;51.47
28000;BME280;15328;50.860;10.562;2023-02-10T02:07:25;98122.75;;;0.95;52.36
28000;BME280;15328;50.860;10.562;2023-02-10T02:12:48;98121.34;;;1.02;52.49
28000;BME280;15328;50.860;10.562;2023-02-10T02:29:06;98134.34;;;1.26;53.92
28000;BME280;15328;50.860;10.562;2023-02-10T02:34:17;98138.28;;;1.32;54.80
28000;BME280;15328;50.860;10.562;2023-02-10T02:39:22;98134.25;;;1.39;55.05
28000;BME280;15328;50.860;10.562;2023-02-10T02:44:22;98133.41;;;1.49;55.47
28000;BME280;15328;50.860;10.562;2023-02-10T02:49:31;98136.00;;;1.61;55.03
28000;BME280;15328;50.860;10.562;2023-02-10T03:04:59;98136.63;;;1.53;54.58
28000;BME280;15328;50.860;10.562;2023-02-10T03:10:00;98139.00;;;1.56;54.18
28000;BME280;15328;50.860;10.562;2023-02-10T03:15:00;98141.50;;;1.46;54.26
28000;BME280;15328;50.860;10.562;2023-02-10T03:20:01;98143.66;;;1.52;54.55
28000;BME280;15328;50.860;10.562;2023-02-10T03:25:01;98138.75;;;1.59;54.01
28000;BME280;15328;50.860;10.562;2023-02-10T03:30:01;98128.97;;;1.50;54.21
28000;BME280;15328;50.860;10.562;2023-02-10T03:35:02;98136.72;;;1.51;53.73
28000;BME280;15328;50.860;10.562;2023-02-10T03:40:03;98146.38;;;1.62;54.46
28000;BME280;15328;50.860;10.562;2023-02-10T03:45:04;98152.94;;;1.68;55.34
28000;BME280;15328;50.860;10.562;2023-02-10T03:50:04;98155.47;;;1.69;55.97
28000;BME280;15328;50.860;10.562;2023-02-10T03:55:05;98160.22;;;1.75;56.29
28000;BME280;15328;50.860;10.562;2023-02-10T04:00:06;98169.03;;;1.85;55.89
28000;BME280;15328;50.860;10.562;2023-02-10T04:05:07;98173.91;;;1.90;56.37
28000;BME280;15328;50.860;10.562;2023-02-10T04:10:08;98181.91;;;1.89;57.72
28000;BME280;15328;50.860;10.562;2023-02-10T04:15:08;98185.59;;;1.86;57.69
28000;BME280;15328;50.860;10.562;2023-02-10T04:20:09;98187.84;;;2.02;57.37
28000;BME280;15328;50.860;10.562;2023-02-10T04:25:10;98193.81;;;2.04;58.35
28000;BME280;15328;50.860;10.562;2023-02-10T04:30:10;98197.53;;;2.01;58.28
28000;BME280;15328;50.860;10.562;2023-02-10T04:35:11;98196.69;;;2.01;58.46
28000;BME280;15328;50.860;10.562;2023-02-10T04:40:11;98202.66;;;1.92;58.33
28000;BME280;15328;50.860;10.562;2023-02-10T04:45:11;98208.53;;;1.95;57.37
28000;BME280;15328;50.860;10.562;2023-02-10T04:50:12;98213.03;;;1.82;57.02
28000;BME280;15328;50.860;10.562;2023-02-10T04:55:13;98208.06;;;1.68;56.65
28000;BME280;15328;50.860;10.562;2023-02-10T05:00:14;98214.97;;;1.69;56.92
28000;BME280;15328;50.860;10.562;2023-02-10T05:05:14;98216.97;;;1.54;57.82
28000;BME280;15328;50.860;10.562;2023-02-10T05:10:14;98219.84;;;1.51;57.53
28000;BME280;15328;50.860;10.562;2023-02-10T05:15:15;98210.41;;;1.37;57.69
28000;BME280;15328;50.860;10.562;2023-02-10T05:20:15;98211.97;;;1.40;57.43
28000;BME280;15328;50.860;10.562;2023-02-10T05:25:16;98221.47;;;1.30;56.85
28000;BME280;15328;50.860;10.562;2023-02-10T05:30:16;98227.91;;;1.26;57.36
28000;BME280;15328;50.860;10.562;2023-02-10T05:35:17;98219.44;;;1.22;56.54
28000;BME280;15328;50.860;10.562;2023-02-10T05:40:17;98218.59;;;1.21;56.76
28000;BME280;15328;50.860;10.562;2023-02-10T05:45:17;98214.28;;;1.09;57.69
28000;BME280;15328;50.860;10.562;2023-02-10T05:50:18;98213.06;;;1.02;57.38
28000;BME280;15328;50.860;10.562;2023-02-10T05:55:19;98228.31;;;0.97;57.92
28000;BME280;15328;50.860;10.562;2023-02-10T06:00:19;98235.34;;;0.97;57.64
28000;BME280;15328;50.860;10.562;2023-02-10T06:05:19;98241.75;;;0.92;57.71
28000;BME280;15328;50.860;10.562;2023-02-10T06:10:20;98251.66;;;1.00;57.24
28000;BME280;15328;50.860;10.562;2023-02-10T06:15:20;98252.81;;;0.85;57.36
28000;BME280;15328;50.860;10.562;2023-02-10T06:20:20;98261.22;;;0.77;57.81
28000;BME280;15328;50.860;10.562;2023-02-10T06:25:21;98257.34;;;0.83;57.61
28000;BME280;15328;50.860;10.562;2023-02-10T06:30:21;98254.66;;;0.72;57.74
28000;BME280;15328;50.860;10.562;2023-02-10T06:35:21;98245.47;;;0.66;58.41
28000;BME280;15328;50.860;10.562;2023-02-10T06:40:22;98257.50;;;0.69;57.92
28000;BME280;15328;50.860;10.562;2023-02-10T06:45:22;98256.72;;;0.55;58.39
28000;BME280;15328;50.860;10.562;2023-02-10T06:50:22;98258.19;;;0.59;58.96
28000;BME280;15328;50.860;10.562;2023-02-10T06:55:23;98260.50;;;0.51;59.02
28000;BME280;15328;50.860;10.562;2023-02-10T07:00:23;98273.66;;;0.63;58.63
28000;BME280;15328;50.860;10.562;2023-02-10T07:05:24;98262.97;;;0.66;59.21
28000;BME280;15328;50.860;10.562;2023-02-10T07:10:25;98268.66;;;0.59;58.89
28000;BME280;15328;50.860;10.562;2023-02-10T07:15:25;98268.88;;;0.56;58.86
28000;BME280;15328;50.860;10.562;2023-02-10T07:20:26;98261.56;;;0.49;59.91
28000;BME280;15328;50.860;10.562;2023-02-10T07:25:26;98265.69;;;0.64;59.67
28000;BME280;15328;50.860;10.562;2023-02-10T07:30:26;98269.50;;;0.84;58.98
28000;BME280;15328;50.860;10.562;2023-02-10T07:35:27;98264.13;;;0.85;59.60
28000;BME280;15328;50.860;10.562;2023-02-10T07:40:27;98280.84;;;0.96;59.41
28000;BME280;15328;50.860;10.562;2023-02-10T07:45:29;98292.72;;;1.12;59.43
28000;BME280;15328;50.860;10.562;2023-02-10T07:50:33;98286.06;;;1.31;59.46
28000;BME280;15328;50.860;10.562;2023-02-10T07:55:33;98296.16;;;1.48;59.86
28000;BME280;15328;50.860;10.562;2023-02-10T08:00:34;98302.28;;;1.71;59.00
28000;BME280;15328;50.860;10.562;2023-02-10T08:05:36;98309.06;;;1.84;58.93
28000;BME280;15328;50.860;10.562;2023-02-10T08:10:37;98319.09;;;1.91;58.55
28000;BME280;15328;50.860;10.562;2023-02-10T08:15:38;98331.28;;;2.03;58.92
28000;BME280;15328;50.860;10.562;2023-02-10T08:20:38;98330.22;;;1.94;59.13
28000;BME280;15328;50.860;10.562;2023-02-10T08:25:41;98326.75;;;2.05;58.30
28000;BME280;15328;50.860;10.562;2023-02-10T08:30:41;98322.84;;;2.22;58.52
28000;BME280;15328;50.860;10.562;2023-02-10T08:35:42;98327.22;;;2.32;58.76
28000;BME280;15328;50.860;10.562;2023-02-10T08:40:42;98319.94;;;2.47;58.33
28000;BME280;15328;50.860;10.562;2023-02-10T08:45:42;98322.22;;;2.52;58.36
28000;BME280;15328;50.860;10.562;2023-02-10T08:50:43;98343.34;;;2.50;57.72
28000;BME280;15328;50.860;10.562;2023-02-10T08:55:44;98340.66;;;2.72;57.30
28000;BME280;15328;50.860;10.562;2023-02-10T09:00:44;98333.53;;;2.63;57.05
28000;BME280;15328;50.860;10.562;2023-02-10T09:05:44;98337.41;;;2.91;57.06
28000;BME280;15328;50.860;10.562;2023-02-10T09:10:46;98337.25;;;3.04;56.40
28000;BME280;15328;50.860;10.562;2023-02-10T09:15:46;98347.03;;;3.13;56.09
28000;BME280;15328;50.860;10.562;2023-02-10T09:20:47;98345.53;;;3.31;55.96
28000;BME280;15328;50.860;10.562;2023-02-10T09:25:57;98335.47;;;3.36;55.61
28000;BME280;15328;50.860;10.562;2023-02-10T09:30:58;98337.63;;;3.52;55.43
28000;BME280;15328;50.860;10.562;2023-02-10T09:35:58;98341.63;;;3.67;55.06
28000;BME280;15328;50.860;10.562;2023-02-10T09:46:28;98346.34;;;4.15;54.98
28000;BME280;15328;50.860;10.562;2023-02-10T09:57:16;98370.78;;;5.17;51.68
28000;BME280;15328;50.860;10.562;2023-02-10T10:02:35;98358.09;;;6.91;48.32
28000;BME280;15328;50.860;10.562;2023-02-10T10:07:43;98361.47;;;8.60;43.59
28000;BME280;15328;50.860;10.562;2023-02-10T10:12:45;98376.84;;;9.49;40.13
28000;BME280;15328;50.860;10.562;2023-02-10T10:18:00;98373.22;;;10.07;38.09
28000;BME280;15328;50.860;10.562;2023-02-10T10:34:33;98360.13;;;13.83;33.30
28000;BME280;15328;50.860;10.562;2023-02-10T10:39:49;98362.69;;;15.09;30.40
28000;BME280;15328;50.860;10.562;2023-02-10T10:44:57;98354.47;;;16.18;28.68
28000;BME280;15328;50.860;10.562;2023-02-10T10:49:58;98348.63;;;16.81;27.29
28000;BME280;15328;50.860;10.562;2023-02-10T10:55:02;98345.78;;;16.03;26.82
28000;BME280;15328;50.860;10.562;2023-02-10T11:00:24;98334.78;;;14.56;27.80
28000;BME280;15328;50.860;10.562;2023-02-10T11:05:36;98332.59;;;13.10;29.49
28000;BME280;15328;50.860;10.562;2023-02-10T11:10:49;98306.03;;;11.76;31.27
28000;BME280;15328;50.860;10.562;2023-02-10T11:16:02;98317.41;;;11.01;32.60
28000;BME280;15328;50.860;10.562;2023-02-10T11:21:07;98309.34;;;10.39;33.78
28000;BME280;15328;50.860;10.562;2023-02-10T11:26:21;98305.72;;;10.16;34.60
28000;BME280;15328;50.860;10.562;2023-02-10T11:31:30;98307.09;;;9.96;35.36
28000;BME280;15328;50.860;10.562;2023-02-10T11:36:38;98298.91;;;10.77;35.09
28000;BME280;15328;50.860;10.562;2023-02-10T11:41:39;98297.03;;;11.77;33.00
28000;BME280;15328;50.860;10.562;2023-02-10T11:46:39;98300.19;;;12.18;32.47
28000;BME280;15328;50.860;10.562;2023-02-10T11:51:51;98293.78;;;12.04;32.86
28000;BME280;15328;50.860;10.562;2023-02-10T12:13:26;98300.03;;;13.79;29.58
28000;BME280;15328;50.860;10.562;2023-02-10T12:39:42;98294.13;;;10.01;35.71
28000;BME280;15328;50.860;10.562;2023-02-10T12:50:40;98303.28;;;9.41;36.99
28000;BME280;15328;50.860;10.562;2023-02-10T12:55:58;98301.63;;;9.73;37.48
28000;BME280;15328;50.860;10.562;2023-02-10T13:06:29;98285.88;;;10.51;36.29
28000;BME280;15328;50.860;10.562;2023-02-10T13:11:46;98296.81;;;11.41;34.96
28000;BME280;15328;50.860;10.562;2023-02-10T13:16:53;98299.09;;;12.42;32.74
28000;BME280;15328;50.860;10.562;2023-02-10T13:22:10;98287.50;;;14.07;29.73
28000;BME280;15328;50.860;10.562;2023-02-10T13:27:34;98294.78;;;16.16;26.69
28000;BME280;15328;50.860;10.562;2023-02-10T13:38:08;98295.97;;;19.52;21.87
28000;BME280;15328;50.860;10.562;2023-02-10T13:43:38;98299.41;;;18.63;22.27
28000;BME280;15328;50.860;10.562;2023-02-10T13:48:43;98298.41;;;16.68;24.49
28000;BME280;15328;50.860;10.562;2023-02-10T13:53:44;98277.44;;;16.05;25.10
28000;BME280;15328;50.860;10.562;2023-02-10T14:03:55;98266.59;;;14.24;26.05
28000;BME280;15328;50.860;10.562;2023-02-10T14:09:02;98270.38;;;13.52;27.93
28000;BME280;15328;50.860;10.562;2023-02-10T14:14:17;98265.09;;;11.54;30.53
28000;BME280;15328;50.860;10.562;2023-02-10T14:19:31;98260.47;;;10.32;32.53
28000;BME280;15328;50.860;10.562;2023-02-10T14:24:36;98251.78;;;8.85;36.43
28000;BME280;15328;50.860;10.562;2023-02-10T14:29:50;98249.97;;;8.35;37.10
28000;BME280;15328;50.860;10.562;2023-02-10T14:39:58;98233.03;;;6.71;41.38
28000;BME280;15328;50.860;10.562;2023-02-10T14:45:02;98223.25;;;6.36;42.77
28000;BME280;15328;50.860;10.562;2023-02-10T14:50:04;98225.63;;;6.02;42.82
28000;BME280;15328;50.860;10.562;2023-02-10T14:55:31;98213.16;;;5.48;44.59
28000;BME280;15328;50.860;10.562;2023-02-10T15:00:33;98221.47;;;5.43;44.79
28000;BME280;15328;50.860;10.562;2023-02-10T15:05:43;98205.97;;;4.92;46.39
28000;BME280;15328;50.860;10.562;2023-02-10T15:10:45;98211.56;;;4.70;46.69
28000;BME280;15328;50.860;10.562;2023-02-10T15:15:50;98214.81;;;4.33;48.12
28000;BME280;15328;50.860;10.562;2023-02-10T15:26:13;98212.91;;;3.95;50.04
28000;BME280;15328;50.860;10.562;2023-02-10T15:31:25;98207.03;;;3.82;50.57
28000;BME280;15328;50.860;10.562;2023-02-10T15:36:45;98208.75;;;3.62;51.12
28000;BME280;15328;50.860;10.562;2023-02-10T15:58:11;98195.88;;;2.96;53.77
28000;BME280;15328;50.860;10.562;2023-02-10T16:03:12;98195.69;;;2.88;54.58
28000;BME280;15328;50.860;10.562;2023-02-10T16:08:21;98200.00;;;2.89;53.78
28000;BME280;15328;50.860;10.562;2023-02-10T16:13:22;98192.88;;;2.80;54.76
28000;BME280;15328;50.860;10.562;2023-02-10T16:18:24;98179.56;;;2.61;55.79
28000;BME280;15328;50.860;10.562;2023-02-10T16:23:26;98183.34;;;2.36;56.03
28000;BME280;15328;50.860;10.562;2023-02-10T16:28:27;98192.28;;;2.44;55.96
28000;BME280;15328;50.860;10.562;2023-02-10T16:33:28;98184.22;;;2.25;56.70
28000;BME280;15328;50.860;10.562;2023-02-10T16:38:28;98194.03;;;2.12;57.96
28000;BME280;15328;50.860;10.562;2023-02-10T16:43:28;98185.44;;;2.10;57.87
28000;BME280;15328;50.860;10.562;2023-02-10T16:48:29;98171.28;;;2.01;58.56
28000;BME280;15328;50.860;10.562;2023-02-10T16:53:38;98165.06;;;2.02;58.70
28000;BME280;15328;50.860;10.562;2023-02-10T16:58:39;98167.59;;;1.93;59.40
28000;BME280;15328;50.860;10.562;2023-02-10T17:03:39;98163.31;;;1.80;59.91
28000;BME280;15328;50.860;10.562;2023-02-10T17:08:40;98148.97;;;1.96;59.46
28000;BME280;15328;50.860;10.562;2023-02-10T17:13:40;98147.09;;;1.64;59.37
28000;BME280;15328;50.860;10.562;2023-02-10T17:18:40;98147.47;;;1.48;60.63
28000;BME280;15328;50.860;10.562;2023-02-10T17:23:41;98153.66;;;1.59;60.24
28000;BME280;15328;50.860;10.562;2023-02-10T17:28:41;98166.88;;;1.57;60.45
28000;BME280;15328;50.860;10.562;2023-02-10T17:33:42;98184.78;;;1.63;59.73
28000;BME280;15328;50.860;10.562;2023-02-10T17:38:48;98193.13;;;1.79;59.31
28000;BME280;15328;50.860;10.562;2023-02-10T17:43:50;98195.06;;;1.66;60.77
28000;BME280;15328;50.860;10.562;2023-02-10T17:48:51;98197.28;;;1.60;60.18
28000;BME280;15328;50.860;10.562;2023-02-10T17:53:52;98198.41;;;1.68;60.45
28000;BME280;15328;50.860;10.562;2023-02-10T17:58:52;98210.41;;;1.60;60.96
28000;BME280;15328;50.860;10.562;2023-02-10T18:03:54;98225.06;;;1.62;61.42
28000;BME280;15328;50.860;10.562;2023-02-10T18:08:56;98241.44;;;1.88;60.19
28000;BME280;15328;50.860;10.562;2023-02-10T18:13:58;98239.53;;;2.01;59.53
28000;BME280;15328;50.860;10.562;2023-02-10T18:18:58;98237.13;;;2.09;59.79
28000;BME280;15328;50.860;10.562;2023-02-10T18:23:59;98245.34;;;2.27;58.98
28000;BME280;15328;50.860;10.562;2023-02-10T18:29:01;98259.06;;;2.31;59.22
28000;BME280;15328;50.860;10.562;2023-02-10T18:34:01;98267.53;;;2.34;58.15
28000;BME280;15328;50.860;10.562;2023-02-10T18:39:03;98252.63;;;2.24;59.49
28000;BME280;15328;50.860;10.562;2023-02-10T18:44:04;98239.13;;;2.17;60.45
28000;BME280;15328;50.860;10.562;2023-02-10T18:49:07;98229.13;;;2.22;59.95
28000;BME280;15328;50.860;10.562;2023-02-10T18:54:10;98214.41;;;2.31;60.17
28000;BME280;15328;50.860;10.562;2023-02-10T18:59:19;98200.13;;;2.24;59.43
28000;BME280;15328;50.860;10.562;2023-02-10T19:04:41;98182.91;;;2.31;59.91
28000;BME280;15328;50.860;10.562;2023-02-10T19:09:45;98182.94;;;2.20;60.06
28000;BME280;15328;50.860;10.562;2023-02-10T19:14:45;98160.34;;;2.17;60.69
28000;BME280;15328;50.860;10.562;2023-02-10T19:19:46;98167.53;;;2.26;59.46
28000;BME280;15328;50.860;10.562;2023-02-10T19:24:46;98166.69;;;2.26;60.54
28000;BME280;15328;50.860;10.562;2023-02-10T19:29:53;98161.69;;;2.23;59.97
28000;BME280;15328;50.860;10.562;2023-02-10T19:34:53;98161.56;;;2.13;61.09
28000;BME280;15328;50.860;10.562;2023-02-10T19:39:53;98158.16;;;2.01;61.68
28000;BME280;15328;50.860;10.562;2023-02-10T19:44:54;98150.28;;;2.01;61.85
28000;BME280;15328;50.860;10.562;2023-02-10T19:49:57;98126.44;;;1.82;62.53
28000;BME280;15328;50.860;10.562;2023-02-10T19:55:16;98134.19;;;1.95;62.11
28000;BME280;15328;50.860;10.562;2023-02-10T20:00:19;98151.34;;;1.99;62.29
28000;BME280;15328;50.860;10.562;2023-02-10T20:05:20;98167.34;;;1.96;61.61
28000;BME280;15328;50.860;10.562;2023-02-10T20:10:20;98159.06;;;2.11;61.86
28000;BME280;15328;50.860;10.562;2023-02-10T20:15:20;98145.16;;;2.00;62.05
28000;BME280;15328;50.860;10.562;2023-02-10T20:20:21;98150.97;;;2.03;62.21
28000;BME280;15328;50.860;10.562;2023-02-10T20:25:23;98163.53;;;1.89;62.57
28000;BME280;15328;50.860;10.562;2023-02-10T20:30:23;98182.66;;;1.68;62.68
28000;BME280;15328;50.860;10.562;2023-02-10T20:35:23;98176.78;;;1.87;63.27
28000;BME280;15328;50.860;10.562;2023-02-10T20:40:24;98156.59;;;1.99;62.25
28000;BME280;15328;50.860;10.562;2023-02-10T20:45:24;98151.63;;;1.62;63.46
28000;BME280;15328;50.860;10.562;2023-02-10T20:50:25;98149.09;;;1.83;63.03
28000;BME280;15328;50.860;10.562;2023-02-10T20:55:25;98147.56;;;1.58;64.36
28000;BME280;15328;50.860;10.562;2023-02-10T21:00:27;98159.38;;;1.52;64.65
28000;BME280;15328;50.860;10.562;2023-02-10T21:05:27;98155.44;;;1.58;64.70
28000;BME280;15328;50.860;10.562;2023-02-10T21:10:28;98142.81;;;1.52;64.72
28000;BME280;15328;50.860;10.562;2023-02-10T21:15:28;98150.09;;;1.71;63.25
28000;BME280;15328;50.860;10.562;2023-02-10T21:20:29;98146.88;;;1.67;64.55
28000;BME280;15328;50.860;10.562;2023-02-10T21:25:29;98130.97;;;1.80;63.11
28000;BME280;15328;50.860;10.562;2023-02-10T21:30:30;98118.38;;;1.40;65.72
28000;BME280;15328;50.860;10.562;2023-02-10T21:35:30;98088.19;;;1.57;65.41
28000;BME280;15328;50.860;10.562;2023-02-10T21:40:31;98106.81;;;1.32;66.11
28000;BME280;15328;50.860;10.562;2023-02-10T21:45:31;98107.66;;;1.43;65.11
28000;BME280;15328;50.860;10.562;2023-02-10T21:50:32;98096.56;;;1.29;66.82
28000;BME280;15328;50.860;10.562;2023-02-10T21:55:33;98111.69;;;1.36;65.82
28000;BME280;15328;50.860;10.562;2023-02-10T22:00:33;98096.56;;;1.51;65.78
28000;BME280;15328;50.860;10.562;2023-02-10T22:05:34;98083.16;;;1.76;64.69
28000;BME280;15328;50.860;10.562;2023-02-10T22:10:35;98071.63;;;1.57;64.90
28000;BME280;15328;50.860;10.562;2023-02-10T22:15:35;98059.34;;;1.57;64.66
28000;BME280;15328;50.860;10.562;2023-02-10T22:20:35;98079.25;;;1.71;64.51
28000;BME280;15328;50.860;10.562;2023-02-10T22:25:36;98092.00;;;1.75;64.18
28000;BME280;15328;50.860;10.562;2023-02-10T22:30:37;98080.19;;;1.70;63.95
28000;BME280;15328;50.860;10.562;2023-02-10T22:35:38;98080.66;;;1.75;64.18
28000;BME280;15328;50.860;10.562;2023-02-10T22:40:40;98070.53;;;1.70;65.06
28000;BME280;15328;50.860;10.562;2023-02-10T22:45:48;98040.53;;;1.84;63.82
28000;BME280;15328;50.860;10.562;2023-02-10T22:50:49;98040.16;;;2.00;64.02
28000;BME280;15328;50.860;10.562;2023-02-10T22:55:49;98045.53;;;2.19;63.11
28000;BME280;15328;50.860;10.562;2023-02-10T23:00:50;98083.22;;;2.29;63.42
28000;BME280;15328;50.860;10.562;2023-02-10T23:05:50;98071.09;;;2.49;62.83
28000;BME280;15328;50.860;10.562;2023-02-10T23:10:51;98059.84;;;2.68;61.87
28000;BME280;15328;50.860;10.562;2023-02-10T23:15:53;98092.66;;;2.73;62.03
28000;BME280;15328;50.860;10.562;2023-02-10T23:21:08;98088.88;;;2.87;61.57
28000;BME280;15328;50.860;10.562;2023-02-10T23:26:12;98085.72;;;2.93;61.09
28000;BME280;15328;50.860;10.562;2023-02-10T23:31:15;98092.13;;;3.00;60.75
28000;BME280;15328;50.860;10.562;2023-02-10T23:36:16;98080.53;;;3.03;60.62
28000;BME280;15328;50.860;10.562;2023-02-10T23:41:17;98090.84;;;3.16;61.29
28000;BME280;15328;50.860;10.562;2023-02-10T23:46:18;98099.34;;;3.29;61.32
28000;BME280;15328;50.860;10.562;2023-02-10T23:51:20;98113.09;;;3.42;61.10
28000;BME280;15328;50.860;10.562;2023-02-10T23:56:22;98099.97;;;3.52;61.20
